createdAt,value
2017-05-22T00:00:12.488Z,0
2017-05-22T00:00:53.379Z,0
2017-05-22T00:01:34.279Z,0
2017-05-22T00:02:15.184Z,0
2017-05-22T00:02:56.057Z,0
2017-05-22T00:03:36.931Z,0
2017-05-22T00:04:17.823Z,0
2017-05-22T00:04:58.716Z,0
2017-05-22T00:05:39.607Z,0
2017-05-22T00:06:20.517Z,0
2017-05-22T00:07:01.417Z,0
2017-05-22T00:07:42.314Z,0
2017-05-22T00:08:23.214Z,0
2017-05-22T00:09:04.103Z,0
2017-05-22T00:09:44.989Z,0
2017-05-22T00:10:25.889Z,0
2017-05-22T00:11:06.778Z,0
2017-05-22T00:11:47.734Z,0
2017-05-22T00:12:28.564Z,0
2017-05-22T00:13:09.456Z,0
2017-05-22T00:13:50.341Z,0
2017-05-22T00:14:31.238Z,0
2017-05-22T00:15:12.128Z,0
2017-05-22T00:15:53.035Z,0
2017-05-22T00:16:33.937Z,0
2017-05-22T00:17:14.811Z,0
2017-05-22T00:17:55.710Z,0
2017-05-22T00:18:36.592Z,0
2017-05-22T00:19:17.480Z,0
2017-05-22T00:19:58.367Z,0
2017-05-22T00:20:39.266Z,0
2017-05-22T00:21:20.137Z,0
2017-05-22T00:22:01.044Z,0
2017-05-22T00:22:41.946Z,0
2017-05-22T00:23:22.834Z,0
2017-05-22T00:24:03.718Z,0
2017-05-22T00:24:44.618Z,0
2017-05-22T00:25:25.515Z,0
2017-05-22T00:26:06.386Z,0
2017-05-22T00:26:47.290Z,0
2017-05-22T00:27:28.175Z,0
2017-05-22T00:28:09.066Z,0
2017-05-22T00:28:49.967Z,0
2017-05-22T00:29:30.867Z,0
2017-05-22T00:30:11.746Z,0
2017-05-22T00:30:52.642Z,0
2017-05-22T00:31:33.529Z,0
2017-05-22T00:32:14.410Z,0
2017-05-22T00:32:55.318Z,0
2017-05-22T00:33:36.196Z,0
2017-05-22T00:34:17.092Z,0
2017-05-22T00:34:57.981Z,0
2017-05-22T00:35:38.897Z,0
2017-05-22T00:36:19.791Z,0
2017-05-22T00:37:00.675Z,0
2017-05-22T00:37:41.565Z,0
2017-05-22T00:38:22.452Z,0
2017-05-22T00:39:03.343Z,0
2017-05-22T00:39:44.245Z,0
2017-05-22T00:40:25.137Z,0
2017-05-22T00:41:06.024Z,0
2017-05-22T00:41:46.906Z,0
2017-05-22T00:42:27.791Z,0
2017-05-22T00:43:08.691Z,0
2017-05-22T00:43:49.577Z,0
2017-05-22T00:44:30.481Z,0
2017-05-22T00:45:11.376Z,0
2017-05-22T00:45:52.256Z,0
2017-05-22T00:46:33.156Z,0
2017-05-22T00:47:14.053Z,0
2017-05-22T00:47:54.936Z,0
2017-05-22T00:48:35.826Z,0
2017-05-22T00:49:16.719Z,0
2017-05-22T00:49:57.604Z,0
2017-05-22T00:50:38.501Z,0
2017-05-22T00:51:19.386Z,0
2017-05-22T00:52:00.262Z,0
2017-05-22T00:52:41.141Z,0
2017-05-22T00:53:22.030Z,0
2017-05-22T00:54:02.939Z,0
2017-05-22T00:54:43.811Z,0
2017-05-22T00:55:24.723Z,0
2017-05-22T00:56:05.608Z,0
2017-05-22T00:56:46.491Z,0
2017-05-22T00:57:27.388Z,0
2017-05-22T00:58:08.290Z,0
2017-05-22T00:58:49.163Z,0
2017-05-22T00:59:30.061Z,0
2017-05-22T01:00:10.967Z,0
2017-05-22T01:00:51.842Z,0
2017-05-22T01:01:32.717Z,0
2017-05-22T01:02:13.644Z,0
2017-05-22T01:02:54.519Z,0
2017-05-22T01:03:35.416Z,0
2017-05-22T01:04:16.314Z,0
2017-05-22T01:04:57.194Z,0
2017-05-22T01:05:38.099Z,0
2017-05-22T01:06:18.992Z,0
2017-05-22T01:06:59.874Z,0
2017-05-22T01:09:14.048Z,0
2017-05-22T01:09:54.934Z,0
2017-05-22T01:10:35.822Z,0
2017-05-22T01:11:16.718Z,0
2017-05-22T01:11:57.630Z,0
2017-05-22T01:12:38.506Z,0
2017-05-22T01:13:19.400Z,0
2017-05-22T01:14:00.298Z,0
2017-05-22T01:14:41.192Z,0
2017-05-22T01:15:22.078Z,0
2017-05-22T01:16:02.986Z,0
2017-05-22T01:17:41.387Z,0
2017-05-22T01:18:22.269Z,0
2017-05-22T01:19:03.159Z,0
2017-05-22T01:19:44.059Z,0
2017-05-22T01:20:24.936Z,0
2017-05-22T01:21:05.895Z,0
2017-05-22T01:21:46.761Z,0
2017-05-22T01:22:27.652Z,0
2017-05-22T01:23:08.531Z,0
2017-05-22T01:23:49.426Z,0
2017-05-22T01:24:30.302Z,0
2017-05-22T01:25:11.178Z,0
2017-05-22T01:25:52.057Z,0
2017-05-22T01:26:32.942Z,0
2017-05-22T01:27:13.826Z,0
2017-05-22T01:27:54.713Z,0
2017-05-22T01:28:35.626Z,0
2017-05-22T01:29:16.498Z,0
2017-05-22T01:29:57.369Z,0
2017-05-22T01:30:38.246Z,0
2017-05-22T01:31:19.131Z,0
2017-05-22T01:32:00.011Z,0
2017-05-22T01:32:40.891Z,0
2017-05-22T01:33:21.781Z,0
2017-05-22T01:34:02.686Z,0
2017-05-22T01:34:43.567Z,0
2017-05-22T01:35:24.439Z,0
2017-05-22T01:36:05.383Z,0
2017-05-22T01:36:46.282Z,0
2017-05-22T01:37:27.163Z,0
2017-05-22T01:38:08.050Z,0
2017-05-22T01:38:48.924Z,0
2017-05-22T01:39:29.817Z,0
2017-05-22T01:40:10.715Z,0
2017-05-22T01:40:51.594Z,0
2017-05-22T01:41:32.462Z,0
2017-05-22T01:42:13.347Z,0
2017-05-22T01:42:54.251Z,0
2017-05-22T01:43:35.126Z,0
2017-05-22T01:44:16.013Z,0
2017-05-22T01:44:56.925Z,0
2017-05-22T01:45:37.833Z,0
2017-05-22T01:46:18.725Z,0
2017-05-22T01:46:59.615Z,0
2017-05-22T01:47:40.491Z,0
2017-05-22T01:48:21.399Z,0
2017-05-22T01:49:02.338Z,0
2017-05-22T01:49:43.242Z,0
2017-05-22T01:50:24.122Z,0
2017-05-22T01:51:05.035Z,0
2017-05-22T01:51:45.928Z,0
2017-05-22T01:52:26.808Z,0
2017-05-22T01:53:07.705Z,0
2017-05-22T01:53:48.591Z,0
2017-05-22T01:54:29.495Z,0
2017-05-22T01:55:10.390Z,0
2017-05-22T01:55:51.265Z,0
2017-05-22T01:56:32.169Z,0
2017-05-22T01:57:13.063Z,0
2017-05-22T01:57:53.942Z,0
2017-05-22T01:58:34.824Z,0
2017-05-22T01:59:15.732Z,0
2017-05-22T01:59:56.616Z,0
2017-05-22T02:00:37.504Z,0
2017-05-22T02:01:18.388Z,0
2017-05-22T02:01:59.284Z,0
2017-05-22T02:02:40.159Z,0
2017-05-22T02:03:21.057Z,0
2017-05-22T02:04:01.947Z,0
2017-05-22T02:04:42.841Z,0
2017-05-22T02:05:23.731Z,0
2017-05-22T02:06:04.621Z,0
2017-05-22T02:06:45.510Z,0
2017-05-22T02:07:26.398Z,0
2017-05-22T02:08:07.273Z,0
2017-05-22T02:08:48.164Z,0
2017-05-22T02:09:29.068Z,0
2017-05-22T02:10:09.949Z,0
2017-05-22T02:10:50.855Z,0
2017-05-22T02:11:31.739Z,0
2017-05-22T02:12:12.624Z,0
2017-05-22T02:12:53.508Z,0
2017-05-22T02:13:34.417Z,0
2017-05-22T02:14:16.998Z,0
2017-05-22T02:14:57.906Z,0
2017-05-22T02:15:38.797Z,0
2017-05-22T02:16:19.685Z,0
2017-05-22T02:17:00.601Z,0
2017-05-22T02:17:41.515Z,0
2017-05-22T02:18:22.416Z,0
2017-05-22T02:19:04.114Z,4
2017-05-22T02:19:46.978Z,4
2017-05-22T02:20:27.867Z,4
2017-05-22T02:21:08.818Z,4
2017-05-22T02:21:50.497Z,4
2017-05-22T02:22:31.395Z,0
2017-05-22T02:23:12.386Z,0
2017-05-22T02:23:55.007Z,0
2017-05-22T02:24:35.891Z,4
2017-05-22T02:25:16.779Z,4
2017-05-22T02:25:57.664Z,4
2017-05-22T02:26:38.600Z,4
2017-05-22T02:27:19.516Z,4
2017-05-22T02:28:00.398Z,0
2017-05-22T02:28:42.312Z,4
2017-05-22T02:29:23.224Z,4
2017-05-22T02:30:04.111Z,4
2017-05-22T02:30:45.103Z,8
2017-05-22T02:31:25.972Z,4
2017-05-22T02:32:06.863Z,4
2017-05-22T02:32:50.625Z,8
2017-05-22T02:33:31.526Z,8
2017-05-22T02:34:12.412Z,8
2017-05-22T02:34:53.292Z,8
2017-05-22T02:35:34.183Z,8
2017-05-22T02:36:15.089Z,8
2017-05-22T02:36:56.003Z,12
2017-05-22T02:37:36.929Z,8
2017-05-22T02:38:17.838Z,12
2017-05-22T02:38:58.733Z,16
2017-05-22T02:39:39.627Z,12
2017-05-22T02:40:20.517Z,16
2017-05-22T02:41:01.403Z,16
2017-05-22T02:41:42.300Z,20
2017-05-22T02:42:23.186Z,16
2017-05-22T02:43:04.067Z,20
2017-05-22T02:43:44.971Z,20
2017-05-22T02:44:25.879Z,24
2017-05-22T02:45:06.760Z,28
2017-05-22T02:45:47.667Z,28
2017-05-22T02:46:28.592Z,28
2017-05-22T02:47:09.479Z,32
2017-05-22T02:47:50.404Z,36
2017-05-22T02:48:32.012Z,36
2017-05-22T02:49:12.908Z,40
2017-05-22T02:49:53.796Z,44
2017-05-22T02:50:34.708Z,44
2017-05-22T02:51:15.590Z,48
2017-05-22T02:51:56.499Z,48
2017-05-22T02:52:37.411Z,52
2017-05-22T02:53:18.285Z,56
2017-05-22T02:53:59.175Z,60
2017-05-22T02:54:40.092Z,64
2017-05-22T02:55:20.958Z,68
2017-05-22T02:56:01.859Z,72
2017-05-22T02:56:42.757Z,76
2017-05-22T02:57:23.639Z,80
2017-05-22T02:58:04.537Z,88
2017-05-22T02:58:45.431Z,96
2017-05-22T02:59:26.312Z,96
2017-05-22T03:00:07.211Z,104
2017-05-22T03:00:48.107Z,108
2017-05-22T03:01:28.992Z,116
2017-05-22T03:02:09.882Z,120
2017-05-22T03:02:50.775Z,128
2017-05-22T03:03:31.671Z,132
2017-05-22T03:04:12.570Z,140
2017-05-22T03:04:53.473Z,144
2017-05-22T03:05:34.345Z,148
2017-05-22T03:06:15.268Z,152
2017-05-22T03:06:56.154Z,160
2017-05-22T03:07:37.056Z,168
2017-05-22T03:08:17.942Z,172
2017-05-22T03:08:58.820Z,180
2017-05-22T03:09:39.700Z,192
2017-05-22T03:10:20.605Z,200
2017-05-22T03:11:01.489Z,204
2017-05-22T03:11:42.378Z,212
2017-05-22T03:12:23.272Z,224
2017-05-22T03:13:04.172Z,232
2017-05-22T03:13:45.051Z,244
2017-05-22T03:14:25.940Z,252
2017-05-22T03:15:06.830Z,260
2017-05-22T03:15:47.717Z,268
2017-05-22T03:16:28.602Z,276
2017-05-22T03:17:09.505Z,288
2017-05-22T03:17:50.392Z,296
2017-05-22T03:18:31.285Z,304
2017-05-22T03:19:12.180Z,312
2017-05-22T03:19:53.058Z,320
2017-05-22T03:21:51.872Z,344
2017-05-22T03:22:32.754Z,356
2017-05-22T03:23:13.648Z,364
2017-05-22T03:23:54.536Z,372
2017-05-22T03:24:35.434Z,384
2017-05-22T03:25:16.322Z,396
2017-05-22T03:25:57.215Z,412
2017-05-22T03:26:38.112Z,420
2017-05-22T03:27:19.025Z,436
2017-05-22T03:27:59.911Z,448
2017-05-22T03:28:40.801Z,464
2017-05-22T03:29:21.695Z,476
2017-05-22T03:30:02.606Z,488
2017-05-22T03:30:43.462Z,500
2017-05-22T03:31:24.355Z,516
2017-05-22T03:32:05.243Z,528
2017-05-22T03:32:46.139Z,536
2017-05-22T03:33:27.029Z,548
2017-05-22T03:34:07.919Z,556
2017-05-22T03:34:48.812Z,568
2017-05-22T03:35:29.700Z,576
2017-05-22T03:36:10.586Z,584
2017-05-22T03:36:51.490Z,596
2017-05-22T03:37:32.375Z,604
2017-05-22T03:38:13.270Z,616
2017-05-22T03:38:54.169Z,628
2017-05-22T03:39:35.048Z,640
2017-05-22T03:40:15.937Z,652
2017-05-22T03:40:56.854Z,664
2017-05-22T03:41:37.733Z,680
2017-05-22T03:42:18.618Z,700
2017-05-22T03:42:59.536Z,712
2017-05-22T03:43:40.409Z,724
2017-05-22T03:44:21.302Z,736
2017-05-22T03:45:02.205Z,744
2017-05-22T03:45:43.086Z,764
2017-05-22T03:46:23.998Z,784
2017-05-22T03:47:04.894Z,808
2017-05-22T03:47:45.772Z,824
2017-05-22T03:48:26.667Z,840
2017-05-22T03:49:07.563Z,860
2017-05-22T03:49:48.441Z,876
2017-05-22T03:50:29.318Z,896
2017-05-22T03:51:10.214Z,904
2017-05-22T03:51:51.109Z,916
2017-05-22T03:52:31.999Z,924
2017-05-22T03:53:12.897Z,932
2017-05-22T03:53:53.783Z,944
2017-05-22T03:54:34.683Z,952
2017-05-22T03:55:15.583Z,960
2017-05-22T03:55:56.476Z,960
2017-05-22T03:58:06.443Z,980
2017-05-22T03:58:47.358Z,980
2017-05-22T03:59:28.225Z,976
2017-05-22T04:00:09.101Z,988
2017-05-22T04:00:49.991Z,992
2017-05-22T04:01:30.893Z,1000
2017-05-22T04:02:11.776Z,1004
2017-05-22T04:02:52.663Z,1012
2017-05-22T04:03:33.565Z,1016
2017-05-22T04:04:14.449Z,1028
2017-05-22T04:04:55.342Z,1036
2017-05-22T04:05:36.243Z,1040
2017-05-22T04:06:17.120Z,1044
2017-05-22T04:06:58.022Z,1052
2017-05-22T04:07:38.918Z,1056
2017-05-22T04:08:19.804Z,1060
2017-05-22T04:09:00.698Z,1072
2017-05-22T04:09:41.580Z,1076
2017-05-22T04:10:22.467Z,1084
2017-05-22T04:11:03.348Z,1088
2017-05-22T04:11:44.224Z,1088
2017-05-22T04:12:25.133Z,1088
2017-05-22T04:13:06.012Z,1088
2017-05-22T04:13:46.910Z,1084
2017-05-22T04:14:27.809Z,1092
2017-05-22T04:15:08.711Z,1092
2017-05-22T04:15:49.614Z,1096
2017-05-22T04:16:30.549Z,1092
2017-05-22T04:17:11.457Z,1096
2017-05-22T04:17:52.347Z,1096
2017-05-22T04:18:33.257Z,1092
2017-05-22T04:19:14.136Z,1096
2017-05-22T04:19:55.013Z,1096
2017-05-22T04:20:35.916Z,1100
2017-05-22T04:21:16.809Z,1104
2017-05-22T04:21:57.759Z,1108
2017-05-22T04:22:38.638Z,1112
2017-05-22T04:23:19.607Z,1112
2017-05-22T04:24:00.546Z,1116
2017-05-22T04:24:41.390Z,1120
2017-05-22T04:25:22.282Z,1128
2017-05-22T04:26:03.189Z,1136
2017-05-22T04:26:44.083Z,1144
2017-05-22T04:27:24.948Z,1152
2017-05-22T04:28:05.826Z,1164
2017-05-22T04:28:46.723Z,1176
2017-05-22T04:29:27.613Z,1192
2017-05-22T04:30:08.494Z,1204
2017-05-22T04:30:49.377Z,1220
2017-05-22T04:31:30.291Z,1232
2017-05-22T04:32:11.196Z,1252
2017-05-22T04:32:52.099Z,1272
2017-05-22T04:33:32.980Z,1292
2017-05-22T04:34:13.885Z,1308
2017-05-22T04:34:54.779Z,1324
2017-05-22T04:35:35.658Z,1344
2017-05-22T04:36:16.601Z,1364
2017-05-22T04:36:57.491Z,1388
2017-05-22T04:37:38.412Z,1412
2017-05-22T04:38:19.280Z,1432
2017-05-22T04:39:00.166Z,1452
2017-05-22T04:39:41.047Z,1468
2017-05-22T04:40:21.941Z,1472
2017-05-22T04:41:02.875Z,1476
2017-05-22T04:41:43.765Z,1476
2017-05-22T04:42:24.655Z,1480
2017-05-22T04:43:05.602Z,1488
2017-05-22T04:43:46.510Z,1492
2017-05-22T04:44:27.395Z,1496
2017-05-22T04:45:08.281Z,1508
2017-05-22T04:45:49.719Z,1520
2017-05-22T04:46:30.622Z,1544
2017-05-22T04:47:11.517Z,1548
2017-05-22T04:47:52.406Z,1564
2017-05-22T04:48:33.287Z,1588
2017-05-22T04:49:14.182Z,1612
2017-05-22T04:49:55.089Z,1636
2017-05-22T04:50:35.975Z,1660
2017-05-22T04:51:16.868Z,1688
2017-05-22T04:51:57.779Z,1728
2017-05-22T04:52:38.669Z,1760
2017-05-22T04:53:19.581Z,1788
2017-05-22T04:54:00.448Z,1812
2017-05-22T04:54:41.328Z,1836
2017-05-22T04:55:22.224Z,1864
2017-05-22T04:56:03.115Z,1904
2017-05-22T04:56:44.001Z,1948
2017-05-22T04:57:24.886Z,1996
2017-05-22T04:58:05.782Z,2048
2017-05-22T04:58:46.670Z,2112
2017-05-22T04:59:27.562Z,2188
2017-05-22T05:00:08.456Z,2272
2017-05-22T05:00:49.373Z,2360
2017-05-22T05:01:30.251Z,2456
2017-05-22T05:02:11.143Z,2528
2017-05-22T05:02:52.045Z,2616
2017-05-22T05:03:32.937Z,2692
2017-05-22T05:04:13.820Z,2748
2017-05-22T05:04:54.708Z,2840
2017-05-22T05:05:35.719Z,2952
2017-05-22T05:06:16.604Z,3064
2017-05-22T05:06:57.486Z,3184
2017-05-22T05:07:38.388Z,3356
2017-05-22T05:08:19.290Z,3480
2017-05-22T05:09:00.159Z,3564
2017-05-22T05:09:41.052Z,3580
2017-05-22T05:10:21.987Z,3664
2017-05-22T05:11:02.863Z,3772
2017-05-22T05:11:43.791Z,3788
2017-05-22T05:12:24.702Z,3792
2017-05-22T05:13:05.595Z,3900
2017-05-22T05:13:46.504Z,3980
2017-05-22T05:14:27.405Z,4092
2017-05-22T05:15:08.288Z,4196
2017-05-22T05:15:49.194Z,4332
2017-05-22T05:16:30.084Z,4396
2017-05-22T05:17:10.978Z,4460
2017-05-22T05:17:51.871Z,4520
2017-05-22T05:18:32.759Z,4576
2017-05-22T05:19:13.625Z,4636
2017-05-22T05:19:54.502Z,4696
2017-05-22T05:20:35.404Z,4740
2017-05-22T05:21:16.320Z,4780
2017-05-22T05:21:57.242Z,4836
2017-05-22T05:22:38.121Z,4900
2017-05-22T05:23:18.999Z,4968
2017-05-22T05:23:59.890Z,5036
2017-05-22T05:24:40.784Z,5104
2017-05-22T05:25:21.680Z,5156
2017-05-22T05:26:02.587Z,5208
2017-05-22T05:26:43.481Z,5252
2017-05-22T05:27:24.354Z,5256
2017-05-22T05:28:05.242Z,5248
2017-05-22T05:28:46.136Z,5256
2017-05-22T05:29:27.068Z,5288
2017-05-22T05:31:45.954Z,5228
2017-05-22T05:32:26.841Z,5220
2017-05-22T05:33:07.738Z,5284
2017-05-22T05:33:48.643Z,5352
2017-05-22T05:34:29.528Z,5340
2017-05-22T05:35:10.428Z,5308
2017-05-22T05:35:51.308Z,5384
2017-05-22T05:36:32.187Z,5396
2017-05-22T05:37:13.090Z,5420
2017-05-22T05:37:53.989Z,5440
2017-05-22T05:38:34.878Z,5472
2017-05-22T05:39:15.785Z,5500
2017-05-22T05:39:56.702Z,5524
2017-05-22T05:40:37.594Z,5524
2017-05-22T05:41:18.482Z,5424
2017-05-22T05:41:59.415Z,5456
2017-05-22T05:42:40.320Z,5524
2017-05-22T05:43:21.167Z,5492
2017-05-22T05:44:02.050Z,5532
2017-05-22T05:44:42.966Z,5664
2017-05-22T05:45:23.894Z,5748
2017-05-22T05:46:04.810Z,5752
2017-05-22T05:46:45.700Z,5840
2017-05-22T05:47:26.600Z,5856
2017-05-22T05:48:07.496Z,5848
2017-05-22T05:48:48.371Z,5900
2017-05-22T05:49:29.318Z,5920
2017-05-22T05:50:10.176Z,5908
2017-05-22T05:50:51.072Z,5952
2017-05-22T05:51:31.972Z,5992
2017-05-22T05:52:12.864Z,6020
2017-05-22T05:52:53.755Z,6016
2017-05-22T05:53:34.651Z,5972
2017-05-22T05:54:15.539Z,5720
2017-05-22T05:54:56.447Z,5416
2017-05-22T05:55:37.337Z,5004
2017-05-22T05:56:18.213Z,4892
2017-05-22T05:56:59.175Z,4992
2017-05-22T05:57:40.066Z,5320
2017-05-22T05:58:20.952Z,5692
2017-05-22T05:59:01.859Z,5920
2017-05-22T05:59:42.753Z,6168
2017-05-22T06:00:23.646Z,6552
2017-05-22T06:01:04.537Z,6940
2017-05-22T06:01:45.424Z,7356
2017-05-22T06:02:26.319Z,7704
2017-05-22T06:03:07.224Z,7908
2017-05-22T06:03:48.116Z,8288
2017-05-22T06:04:29.000Z,8464
2017-05-22T06:05:09.884Z,8720
2017-05-22T06:05:50.770Z,8672
2017-05-22T06:06:31.667Z,8960
2017-05-22T06:07:12.565Z,9244
2017-05-22T06:07:53.461Z,9572
2017-05-22T06:08:34.372Z,9784
2017-05-22T06:09:15.269Z,9964
2017-05-22T06:09:56.155Z,10156
2017-05-22T06:10:37.094Z,10432
2017-05-22T06:11:17.998Z,10448
2017-05-22T06:11:58.886Z,10476
2017-05-22T06:13:58.631Z,9556
2017-05-22T06:14:39.530Z,9504
2017-05-22T06:15:20.430Z,8740
2017-05-22T06:16:01.335Z,10068
2017-05-22T06:16:42.233Z,10860
2017-05-22T06:17:23.200Z,11068
2017-05-22T06:18:04.114Z,11196
2017-05-22T06:18:45.090Z,11396
2017-05-22T06:19:25.985Z,11152
2017-05-22T06:20:06.871Z,10780
2017-05-22T06:20:47.756Z,10696
2017-05-22T06:21:28.646Z,10940
2017-05-22T06:22:09.540Z,10840
2017-05-22T06:22:50.427Z,10340
2017-05-22T06:23:31.317Z,9884
2017-05-22T06:24:12.205Z,9692
2017-05-22T06:24:53.096Z,10500
2017-05-22T06:25:33.989Z,10884
2017-05-22T06:26:14.881Z,10760
2017-05-22T06:26:55.783Z,10616
2017-05-22T06:27:36.687Z,11120
2017-05-22T06:28:17.566Z,11708
2017-05-22T06:28:58.484Z,11532
2017-05-22T06:29:39.385Z,11868
2017-05-22T06:30:20.286Z,11988
2017-05-22T06:31:01.186Z,12192
2017-05-22T06:31:42.123Z,12132
2017-05-22T06:32:23.002Z,12152
2017-05-22T06:33:03.906Z,12224
2017-05-22T06:33:44.800Z,12196
2017-05-22T06:35:53.864Z,11388
2017-05-22T06:36:34.719Z,10732
2017-05-22T06:37:15.638Z,10124
2017-05-22T06:37:56.527Z,9160
2017-05-22T06:38:37.427Z,10088
2017-05-22T06:39:18.325Z,10244
2017-05-22T06:39:59.231Z,9892
2017-05-22T06:40:40.137Z,9668
2017-05-22T06:41:21.073Z,10072
2017-05-22T06:42:02.004Z,10392
2017-05-22T06:42:42.910Z,10444
2017-05-22T06:43:23.809Z,9996
2017-05-22T06:44:04.700Z,9644
2017-05-22T06:44:45.601Z,9748
2017-05-22T06:45:26.505Z,10828
2017-05-22T06:46:07.421Z,11572
2017-05-22T06:46:48.302Z,11908
2017-05-22T06:47:29.210Z,11884
2017-05-22T06:48:10.170Z,11212
2017-05-22T06:48:51.070Z,11148
2017-05-22T06:49:31.974Z,11480
2017-05-22T06:50:12.881Z,11724
2017-05-22T06:50:53.780Z,11772
2017-05-22T06:51:34.682Z,11800
2017-05-22T06:52:15.588Z,11768
2017-05-22T06:52:56.495Z,11788
2017-05-22T06:53:37.435Z,12004
2017-05-22T06:54:18.360Z,12228
2017-05-22T06:54:59.272Z,12300
2017-05-22T06:55:40.184Z,12320
2017-05-22T06:56:21.093Z,12376
2017-05-22T06:57:01.997Z,12348
2017-05-22T06:57:42.903Z,12388
2017-05-22T06:58:23.795Z,12400
2017-05-22T06:59:04.694Z,12452
2017-05-22T06:59:45.625Z,12428
2017-05-22T07:00:26.494Z,12468
2017-05-22T07:01:07.403Z,12516
2017-05-22T07:01:48.307Z,12520
2017-05-22T07:02:29.219Z,12560
2017-05-22T07:03:10.124Z,12576
2017-05-22T07:03:51.033Z,12728
2017-05-22T07:04:31.941Z,12804
2017-05-22T07:05:12.857Z,12904
2017-05-22T07:05:53.760Z,12652
2017-05-22T07:06:34.673Z,13028
2017-05-22T07:07:15.615Z,13336
2017-05-22T07:07:56.525Z,13640
2017-05-22T07:08:37.456Z,14464
2017-05-22T07:09:18.392Z,17856
2017-05-22T07:09:59.296Z,29152
2017-05-22T07:10:40.205Z,43616
2017-05-22T07:11:21.120Z,55360
2017-05-22T07:12:02.015Z,59776
2017-05-22T07:12:42.914Z,57344
2017-05-22T07:13:23.841Z,55168
2017-05-22T07:14:05.884Z,52640
2017-05-22T07:14:46.582Z,51264
2017-05-22T07:15:27.463Z,51392
2017-05-22T07:16:08.361Z,51264
2017-05-22T07:16:49.302Z,51392
2017-05-22T07:17:30.195Z,51904
2017-05-22T07:18:11.104Z,53024
2017-05-22T07:18:52.009Z,54080
2017-05-22T07:19:32.934Z,54976
2017-05-22T07:20:13.859Z,49760
2017-05-22T07:20:54.797Z,44352
2017-05-22T07:21:35.702Z,42144
2017-05-22T07:22:16.597Z,46432
2017-05-22T07:22:57.499Z,51104
2017-05-22T07:25:06.849Z,54272
2017-05-22T07:25:47.763Z,53568
2017-05-22T07:26:28.669Z,52192
2017-05-22T07:27:09.577Z,51104
2017-05-22T07:27:50.476Z,51328
2017-05-22T07:28:31.382Z,51392
2017-05-22T07:29:12.292Z,52576
2017-05-22T07:29:53.164Z,54656
2017-05-22T07:30:34.055Z,57248
2017-05-22T07:31:14.948Z,59776
2017-05-22T07:31:55.861Z,63392
2017-05-22T07:32:36.769Z,65984
2017-05-22T07:33:17.744Z,68288
2017-05-22T07:33:58.633Z,69280
2017-05-22T07:34:39.511Z,69184
2017-05-22T07:35:20.406Z,68128
2017-05-22T07:36:01.407Z,67200
2017-05-22T07:36:42.270Z,66176
2017-05-22T07:37:23.965Z,64704
2017-05-22T07:38:04.854Z,63424
2017-05-22T07:38:45.761Z,63712
2017-05-22T07:39:26.678Z,62176
2017-05-22T07:40:07.595Z,62432
2017-05-22T07:40:48.515Z,63552
2017-05-22T07:41:29.429Z,64640
2017-05-22T07:42:10.337Z,66944
2017-05-22T07:42:51.223Z,68096
2017-05-22T07:43:32.129Z,67744
2017-05-22T07:44:13.030Z,68224
2017-05-22T07:44:53.943Z,64864
2017-05-22T07:45:34.847Z,50784
2017-05-22T07:46:15.758Z,33408
2017-05-22T07:46:56.665Z,19136
2017-05-22T07:47:37.576Z,15328
2017-05-22T07:48:18.474Z,14880
2017-05-22T07:48:59.387Z,14456
2017-05-22T07:49:40.265Z,14384
2017-05-22T07:51:34.908Z,14324
2017-05-22T07:52:15.794Z,14336
2017-05-22T07:52:56.694Z,14392
2017-05-22T07:53:37.605Z,14480
2017-05-22T07:54:18.498Z,14512
2017-05-22T07:54:59.369Z,14436
2017-05-22T07:55:40.271Z,14488
2017-05-22T07:56:21.182Z,14516
2017-05-22T07:57:02.097Z,14560
2017-05-22T07:57:42.997Z,14648
2017-05-22T07:58:23.878Z,14568
2017-05-22T07:59:05.743Z,14592
2017-05-22T08:01:20.004Z,15200
2017-05-22T08:02:00.882Z,15296
2017-05-22T08:02:41.791Z,15392
2017-05-22T08:03:22.691Z,15680
2017-05-22T08:04:03.599Z,16352
2017-05-22T08:04:44.487Z,22240
2017-05-22T08:05:25.388Z,38720
2017-05-22T08:06:06.302Z,57024
2017-05-22T08:06:47.207Z,69728
2017-05-22T08:07:28.114Z,71904
2017-05-22T08:08:09.011Z,66304
2017-05-22T08:08:49.920Z,64928
2017-05-22T08:09:30.824Z,67392
2017-05-22T08:10:11.787Z,74560
2017-05-22T08:10:52.714Z,76736
2017-05-22T08:11:33.631Z,76736
2017-05-22T08:12:14.542Z,77632
2017-05-22T08:12:55.455Z,78272
2017-05-22T08:13:36.412Z,77984
2017-05-22T08:14:17.300Z,77600
2017-05-22T08:14:58.209Z,75072
2017-05-22T08:15:39.127Z,74656
2017-05-22T08:16:20.019Z,73248
2017-05-22T08:17:00.921Z,72768
2017-05-22T08:17:41.809Z,73440
2017-05-22T08:18:22.725Z,75008
2017-05-22T08:19:03.624Z,76000
2017-05-22T08:19:44.541Z,72096
2017-05-22T08:20:25.432Z,52896
2017-05-22T08:21:06.331Z,43552
2017-05-22T08:21:47.241Z,54080
2017-05-22T08:22:28.149Z,72832
2017-05-22T08:23:09.047Z,77728
2017-05-22T08:23:49.930Z,77888
2017-05-22T08:24:30.823Z,77248
2017-05-22T08:25:11.728Z,76064
2017-05-22T08:27:05.495Z,75168
2017-05-22T08:27:46.442Z,74912
2017-05-22T08:28:27.296Z,76000
2017-05-22T08:29:08.195Z,76256
2017-05-22T08:29:49.146Z,76768
2017-05-22T08:30:30.043Z,77728
2017-05-22T08:31:10.947Z,78400
2017-05-22T08:31:51.868Z,79424
2017-05-22T08:32:32.764Z,80064
2017-05-22T08:34:47.246Z,72512
2017-05-22T08:35:28.149Z,68832
2017-05-22T08:36:09.052Z,69568
2017-05-22T08:36:50.017Z,74912
2017-05-22T08:37:30.925Z,83808
2017-05-22T08:38:11.854Z,84320
2017-05-22T08:38:52.771Z,84512
2017-05-22T08:39:33.687Z,82560
2017-05-22T08:40:14.590Z,80832
2017-05-22T08:40:55.484Z,82848
2017-05-22T08:41:36.411Z,82240
2017-05-22T08:42:17.310Z,83424
2017-05-22T08:42:58.218Z,84064
2017-05-22T08:43:39.110Z,84352
2017-05-22T08:44:20.017Z,84640
2017-05-22T08:45:00.977Z,84384
2017-05-22T08:45:41.914Z,83808
2017-05-22T08:46:24.489Z,81696
2017-05-22T08:47:05.400Z,81056
2017-05-22T08:47:46.365Z,81952
2017-05-22T08:48:27.319Z,81632
2017-05-22T08:49:08.226Z,82080
2017-05-22T08:49:49.179Z,84288
2017-05-22T08:50:30.071Z,85184
2017-05-22T08:51:10.974Z,84992
2017-05-22T08:51:51.865Z,84896
2017-05-22T08:52:32.771Z,86880
2017-05-22T08:53:13.708Z,86624
2017-05-22T08:55:28.975Z,70208
2017-05-22T08:56:09.942Z,52736
2017-05-22T08:56:50.862Z,16976
2017-05-22T08:57:31.758Z,16248
2017-05-22T08:58:12.680Z,31360
2017-05-22T08:58:53.608Z,13636
2017-05-22T08:59:34.506Z,17472
2017-05-22T09:00:15.435Z,68192
2017-05-22T09:00:56.361Z,75104
2017-05-22T09:01:37.289Z,76960
2017-05-22T09:02:18.210Z,81376
2017-05-22T09:02:59.163Z,85472
2017-05-22T09:04:58.055Z,88960
2017-05-22T09:05:38.984Z,69248
2017-05-22T09:06:19.901Z,21408
2017-05-22T09:07:00.818Z,15624
2017-05-22T09:07:41.735Z,92160
2017-05-22T09:08:22.679Z,91040
2017-05-22T09:09:03.693Z,89536
2017-05-22T09:09:44.629Z,89536
2017-05-22T09:10:25.583Z,88640
2017-05-22T09:11:06.563Z,88576
2017-05-22T09:11:47.494Z,87840
2017-05-22T09:12:28.402Z,88064
2017-05-22T09:13:09.371Z,88224
2017-05-22T09:13:50.290Z,77184
2017-05-22T09:14:31.207Z,77600
2017-05-22T09:15:12.132Z,73376
2017-05-22T09:15:53.030Z,75904
2017-05-22T09:16:33.972Z,82656
2017-05-22T09:17:14.867Z,86272
2017-05-22T09:17:55.769Z,87104
2017-05-22T09:18:36.688Z,17504
2017-05-22T09:19:17.615Z,56928
2017-05-22T09:19:58.544Z,90976
2017-05-22T09:20:39.451Z,92704
2017-05-22T09:21:20.366Z,94400
2017-05-22T09:22:01.272Z,95200
2017-05-22T09:22:42.178Z,97184
2017-05-22T09:23:23.657Z,96928
2017-05-22T09:24:04.578Z,97568
2017-05-22T09:24:45.494Z,100384
2017-05-22T09:25:26.410Z,100576
2017-05-22T09:26:07.317Z,100672
2017-05-22T09:28:16.440Z,102464
2017-05-22T09:28:57.362Z,102400
2017-05-22T09:29:38.287Z,102816
2017-05-22T09:30:19.197Z,100576
2017-05-22T09:31:00.122Z,100352
2017-05-22T09:31:41.038Z,99424
2017-05-22T09:32:21.955Z,99520
2017-05-22T09:33:02.872Z,96064
2017-05-22T09:33:43.794Z,96288
2017-05-22T09:34:24.707Z,95552
2017-05-22T09:35:05.635Z,93600
2017-05-22T09:35:46.560Z,92640
2017-05-22T09:36:27.464Z,93568
2017-05-22T09:37:08.389Z,93184
2017-05-22T09:37:49.304Z,91200